createdAt,value
2022-12-18T00:03:38.067Z,0.68
2022-12-18T00:08:32.800Z,1.90
2022-12-18T00:13:26.319Z,1.48
2022-12-18T00:18:21.862Z,0.88
2022-12-18T00:23:15.266Z,2.05
2022-12-18T00:28:08.788Z,5.25
2022-12-18T00:33:02.638Z,1.55
2022-12-18T00:37:56.341Z,2.22
2022-12-18T00:42:58.707Z,0.90
2022-12-18T00:47:51.325Z,2.97
2022-12-18T00:52:45.057Z,3.88
2022-12-18T00:57:38.072Z,1.67
2022-12-18T01:02:32.117Z,1.73
2022-12-18T01:07:24.933Z,2.47
2022-12-18T01:12:18.205Z,1.00
2022-12-18T01:17:11.154Z,1.00
2022-12-18T01:22:04.733Z,1.08
2022-12-18T01:26:58.649Z,1.50
2022-12-18T01:31:51.166Z,2.60
2022-12-18T01:36:45.759Z,2.08
2022-12-18T01:41:58.566Z,1.67
2022-12-18T01:46:52.743Z,1.95
2022-12-18T01:51:46.667Z,0.82
2022-12-18T01:56:40.040Z,1.20
2022-12-18T02:01:34.478Z,2.13
2022-12-18T02:06:39.526Z,3.25
2022-12-18T02:11:48.214Z,1.10
2022-12-18T02:16:57.905Z,0.95
2022-12-18T02:21:58.883Z,7.23
2022-12-18T02:26:55.366Z,1.15
2022-12-18T02:36:53.383Z,3.47
2022-12-18T02:41:47.056Z,1.50
2022-12-18T02:46:48.234Z,1.30
2022-12-18T02:52:02.558Z,2.13
2022-12-18T02:57:05.610Z,1.15
2022-12-18T03:02:26.318Z,1.02
2022-12-18T03:12:41.435Z,1.70
2022-12-18T03:17:36.804Z,1.10
2022-12-18T03:22:33.426Z,2.15
2022-12-18T03:27:34.727Z,0.95
2022-12-18T03:32:34.819Z,1.90
2022-12-18T03:38:07.929Z,1.40
2022-12-18T03:43:40.755Z,1.23
2022-12-18T03:48:43.320Z,1.25
2022-12-18T03:53:45.030Z,1.25
2022-12-18T03:58:59.497Z,3.33
2022-12-18T04:03:56.462Z,1.50
2022-12-18T04:08:50.662Z,1.50
2022-12-18T04:13:47.814Z,1.27
2022-12-18T04:18:46.442Z,1.35
2022-12-18T04:23:41.716Z,1.05
2022-12-18T04:28:35.892Z,1.35
2022-12-18T04:33:30.041Z,1.33
2022-12-18T04:38:24.443Z,1.48
2022-12-18T04:43:25.348Z,1.10
2022-12-18T04:48:19.189Z,1.10
2022-12-18T04:53:12.498Z,1.60
2022-12-18T04:58:05.791Z,3.38
2022-12-18T05:02:59.794Z,1.45
2022-12-18T05:07:53.472Z,1.70
2022-12-18T05:13:01.606Z,1.50
2022-12-18T05:17:56.039Z,1.15
2022-12-18T05:22:50.103Z,2.20
2022-12-18T05:27:43.204Z,1.48
2022-12-18T05:32:35.928Z,1.73
2022-12-18T05:37:29.980Z,1.20
2022-12-18T05:42:22.706Z,3.30
2022-12-18T05:47:15.526Z,9.95
2022-12-18T05:52:08.190Z,1.33
2022-12-18T05:57:01.703Z,1.20
2022-12-18T06:01:54.760Z,1.38
2022-12-18T06:06:49.126Z,1.80
2022-12-18T06:11:42.567Z,1.35
2022-12-18T06:16:35.341Z,1.10
2022-12-18T06:21:29.355Z,1.35
2022-12-18T06:26:27.841Z,3.05
2022-12-18T06:31:22.101Z,2.28
2022-12-18T06:36:17.223Z,1.27
2022-12-18T06:41:15.373Z,1.20
2022-12-18T06:46:08.482Z,1.52
2022-12-18T06:51:02.046Z,1.83
2022-12-18T06:55:54.165Z,2.00
2022-12-18T07:00:49.440Z,5.97
2022-12-18T07:05:42.453Z,1.83
2022-12-18T07:10:46.289Z,2.13
2022-12-18T07:15:41.853Z,7.68
2022-12-18T07:20:36.338Z,2.17
2022-12-18T07:25:29.906Z,2.75
2022-12-18T07:30:24.050Z,2.50
2022-12-18T07:35:23.357Z,10.02
2022-12-18T07:40:18.150Z,7.68
2022-12-18T07:45:12.098Z,12.23
2022-12-18T07:50:05.799Z,8.27
2022-12-18T07:55:00.173Z,9.98
2022-12-18T07:59:52.904Z,7.43
2022-12-18T08:04:48.481Z,6.88
2022-12-18T08:09:43.055Z,10.98
2022-12-18T08:14:36.282Z,7.25
2022-12-18T08:19:29.822Z,13.23
2022-12-18T08:24:23.446Z,6.75
2022-12-18T08:29:21.445Z,8.40
2022-12-18T08:34:15.046Z,4.57
2022-12-18T08:39:09.316Z,8.90
2022-12-18T08:44:22.027Z,6.97
2022-12-18T08:49:15.723Z,4.10
2022-12-18T08:54:08.733Z,5.00
2022-12-18T08:59:01.831Z,6.03
2022-12-18T09:03:54.628Z,3.78
2022-12-18T09:08:47.050Z,4.82
2022-12-18T09:13:41.911Z,4.38
2022-12-18T09:18:37.222Z,4.03
2022-12-18T09:23:30.625Z,4.70
2022-12-18T09:28:24.242Z,6.18
2022-12-18T09:33:18.539Z,5.57
2022-12-18T09:38:14.401Z,4.18
2022-12-18T09:43:11.848Z,7.60
2022-12-18T09:48:06.746Z,9.15
2022-12-18T09:53:07.657Z,10.27
2022-12-18T09:58:16.124Z,6.75
2022-12-18T10:03:14.792Z,4.93
2022-12-18T10:08:33.377Z,3.75
2022-12-18T10:13:31.297Z,8.00
2022-12-18T10:18:53.519Z,5.95
2022-12-18T10:24:30.241Z,3.40
2022-12-18T10:29:23.896Z,15.07
2022-12-18T10:34:16.614Z,3.65
2022-12-18T10:39:35.869Z,4.75
2022-12-18T10:44:29.547Z,6.75
2022-12-18T10:49:28.910Z,3.88
2022-12-18T10:54:27.098Z,2.90
2022-12-18T10:59:20.534Z,3.42
2022-12-18T11:04:19.702Z,3.47
2022-12-18T11:09:24.677Z,2.15
2022-12-18T11:14:46.924Z,1.98
2022-12-18T11:19:42.653Z,2.55
2022-12-18T11:24:37.317Z,1.90
2022-12-18T11:29:33.257Z,6.75
2022-12-18T11:34:33.319Z,6.50
2022-12-18T11:40:05.091Z,2.17
2022-12-18T11:45:12.999Z,1.33
2022-12-18T11:50:34.172Z,3.17
2022-12-18T11:55:51.909Z,3.55
2022-12-18T12:00:52.659Z,3.40
2022-12-18T12:06:09.511Z,2.55
2022-12-18T12:11:04.922Z,4.78
2022-12-18T12:16:13.762Z,1.40
2022-12-18T12:21:24.288Z,2.38
2022-12-18T12:26:29.862Z,7.30
2022-12-18T12:31:40.321Z,4.00
2022-12-18T12:37:04.042Z,2.80
2022-12-18T12:42:15.823Z,5.95
2022-12-18T12:47:31.743Z,3.72
2022-12-18T12:53:03.842Z,10.68
2022-12-18T12:58:16.546Z,2.88
2022-12-18T13:03:17.146Z,2.38
2022-12-18T13:08:33.246Z,6.55
2022-12-18T13:13:52.311Z,2.60
2022-12-18T13:18:51.972Z,3.08
2022-12-18T13:23:46.259Z,4.45
2022-12-18T13:28:49.120Z,3.85
2022-12-18T13:34:24.016Z,7.78
2022-12-18T13:39:21.223Z,6.40
2022-12-18T13:44:50.325Z,7.30
2022-12-18T13:49:45.681Z,9.00
2022-12-18T13:54:42.122Z,6.10
2022-12-18T13:59:40.391Z,5.45
2022-12-18T14:04:37.994Z,4.30
2022-12-18T14:09:32.564Z,5.00
2022-12-18T14:14:32.378Z,4.63
2022-12-18T14:19:27.031Z,4.57
2022-12-18T14:24:23.463Z,2.45
2022-12-18T14:29:28.109Z,3.50
2022-12-18T14:34:27.726Z,2.83
2022-12-18T14:39:20.329Z,5.00
2022-12-18T14:44:15.326Z,3.78
2022-12-18T14:49:28.394Z,6.50
2022-12-18T14:54:22.169Z,4.53
2022-12-18T14:59:24.093Z,3.78
2022-12-18T15:04:36.521Z,3.63
2022-12-18T15:09:30.106Z,2.42
2022-12-18T15:14:38.560Z,3.22
2022-12-18T15:19:39.631Z,3.38
2022-12-18T15:24:34.374Z,3.22
2022-12-18T15:29:28.084Z,2.60
2022-12-18T15:34:24.360Z,2.60
2022-12-18T15:39:17.845Z,6.60
2022-12-18T15:44:37.651Z,6.65
2022-12-18T15:49:31.202Z,8.10
2022-12-18T15:54:44.361Z,24.25
2022-12-18T15:59:37.709Z,31.42
2022-12-18T16:04:31.625Z,13.82
2022-12-18T16:09:26.652Z,9.77
2022-12-18T16:14:23.431Z,9.18
2022-12-18T16:19:17.256Z,10.15
2022-12-18T16:24:21.013Z,5.63
2022-12-18T16:29:14.929Z,6.85
2022-12-18T16:34:35.223Z,11.27
2022-12-18T16:39:28.825Z,12.38
2022-12-18T16:44:22.054Z,18.02
2022-12-18T16:49:20.674Z,7.95
2022-12-18T16:54:18.867Z,8.70
2022-12-18T16:59:13.428Z,11.82
2022-12-18T17:04:07.227Z,6.43
2022-12-18T17:09:03.464Z,10.52
2022-12-18T17:13:55.983Z,11.23
2022-12-18T17:18:51.090Z,7.03
2022-12-18T17:23:46.148Z,11.20
2022-12-18T17:28:40.146Z,10.13
2022-12-18T17:33:33.383Z,12.13
2022-12-18T17:38:26.581Z,13.25
2022-12-18T17:43:20.907Z,13.60
2022-12-18T17:48:16.806Z,11.85
2022-12-18T17:53:11.078Z,20.08
2022-12-18T17:58:05.518Z,21.73
2022-12-18T18:02:59.430Z,13.52
2022-12-18T18:07:52.650Z,16.20
2022-12-18T18:13:04.567Z,12.57
2022-12-18T18:17:58.374Z,11.30
2022-12-18T18:22:51.972Z,13.65
2022-12-18T18:27:46.117Z,8.90
2022-12-18T18:32:42.260Z,6.60
2022-12-18T18:37:36.716Z,5.63
2022-12-18T18:42:29.691Z,5.50
2022-12-18T18:47:22.326Z,7.95
2022-12-18T18:52:14.791Z,5.70
2022-12-18T18:57:20.445Z,4.28
2022-12-18T19:02:15.496Z,7.50
2022-12-18T19:07:09.577Z,11.18
2022-12-18T19:12:21.283Z,12.05
2022-12-18T19:17:15.762Z,8.82
2022-12-18T19:22:11.122Z,8.32
2022-12-18T19:27:04.449Z,7.22
2022-12-18T19:31:57.646Z,15.90
2022-12-18T19:36:56.482Z,8.48
2022-12-18T19:41:52.572Z,10.57
2022-12-18T19:46:47.072Z,6.35
2022-12-18T19:51:45.588Z,10.85
2022-12-18T19:56:38.239Z,9.30
2022-12-18T20:01:31.436Z,8.23
2022-12-18T20:06:36.547Z,11.45
2022-12-18T20:11:30.730Z,11.65
2022-12-18T20:16:23.748Z,9.32
2022-12-18T20:21:17.205Z,10.02
2022-12-18T20:26:10.601Z,7.03
2022-12-18T20:31:13.225Z,6.32
2022-12-18T20:36:15.289Z,8.43
2022-12-18T20:41:12.081Z,7.00
2022-12-18T20:46:08.087Z,6.20
2022-12-18T20:51:02.619Z,7.68
2022-12-18T20:55:58.024Z,5.88
2022-12-18T21:00:51.297Z,8.25
2022-12-18T21:05:44.814Z,11.73
2022-12-18T21:10:39.206Z,9.80
2022-12-18T21:15:33.139Z,7.07
2022-12-18T21:20:26.569Z,8.05
2022-12-18T21:25:19.534Z,7.60
2022-12-18T21:30:15.351Z,9.27
2022-12-18T21:35:09.694Z,8.27
2022-12-18T21:40:02.643Z,6.75
2022-12-18T21:44:56.775Z,6.93
2022-12-18T21:49:50.866Z,8.57
2022-12-18T21:54:44.829Z,10.13
2022-12-18T21:59:40.223Z,8.82
2022-12-18T22:04:33.987Z,7.75
2022-12-18T22:09:27.637Z,9.32
2022-12-18T22:14:21.745Z,8.05
2022-12-18T22:19:15.814Z,10.20
2022-12-18T22:24:13.801Z,9.52
2022-12-18T22:29:27.088Z,12.73
2022-12-18T22:34:23.251Z,9.30
2022-12-18T22:39:19.216Z,12.43
2022-12-18T22:44:13.188Z,10.32
2022-12-18T22:49:13.709Z,9.52
2022-12-18T22:54:06.829Z,14.77
2022-12-18T22:59:01.319Z,14.60
2022-12-18T23:03:54.719Z,13.02
2022-12-18T23:08:52.975Z,13.38
2022-12-18T23:13:49.311Z,12.95
2022-12-18T23:18:42.543Z,14.18
2022-12-18T23:23:37.196Z,13.85
2022-12-18T23:28:31.981Z,14.23
2022-12-18T23:33:25.648Z,14.20
2022-12-18T23:38:19.942Z,15.95
2022-12-18T23:43:13.103Z,15.52
2022-12-18T23:48:06.502Z,17.83
2022-12-18T23:53:04.848Z,17.45
2022-12-18T23:57:59.717Z,16.30
